DMCEW -EDML

Flight info

Callsign DMCEW
Flight time N/A
Altitude 0
Route
Aircraft PIVI

Departure

Time N/A
Airport -

Arrival

Time 2026-04-16 14:04
Airport Landshut Airfield (EDML)
Time Latitude Longitude Altitude Speed Heading
2026-04-16 13:56 48.35967 11.78026 2385 ft 104 kts 31°
2026-04-16 13:56 48.36556 11.78642 2601 ft 103 kts 32°
2026-04-16 13:56 48.37132 11.79286 2798 ft 104 kts 32°
2026-04-16 13:56 48.37752 11.79966 2798 ft 114 kts 32°
2026-04-16 13:57 48.38400 11.80685 2796 ft 117 kts 33°
2026-04-16 13:57 48.39017 11.81483 2788 ft 118 kts 50°
2026-04-16 13:57 48.39498 11.82473 2794 ft 118 kts 50°
2026-04-16 13:58 48.40524 11.84435 2799 ft 120 kts 46°
2026-04-16 13:58 48.41078 11.85377 2795 ft 121 kts 45°
2026-04-16 13:58 48.41624 11.86334 2786 ft 119 kts 47°
2026-04-16 13:58 48.42155 11.87286 2793 ft 119 kts 47°
2026-04-16 13:59 48.42690 11.88250 2803 ft 121 kts 46°
2026-04-16 13:59 48.43237 11.89227 2803 ft 123 kts 45°
2026-04-16 13:59 48.43799 11.90194 2799 ft 122 kts 45°
2026-04-16 13:59 48.44349 11.91172 2803 ft 122 kts 47°
2026-04-16 14:00 48.44892 11.92154 2789 ft 122 kts 47°
2026-04-16 14:00 48.45436 11.93128 2790 ft 120 kts 45°
2026-04-16 14:00 48.45972 11.94072 2717 ft 111 kts 41°
2026-04-16 14:00 48.46573 11.94948 2524 ft 117 kts 34°
2026-04-16 14:01 48.47192 11.95684 2637 ft 112 kts 34°
2026-04-16 14:01 48.47814 11.96427 2626 ft 115 kts 34°
2026-04-16 14:01 48.48435 11.97179 2548 ft 115 kts 34°
2026-04-16 14:01 48.49095 11.97873 2391 ft 113 kts 28°
2026-04-16 14:02 48.49643 11.98467 2227 ft 86 kts 35°
2026-04-16 14:02 48.49910 11.99115 2103 ft 67 kts 64°
2026-04-16 14:02 48.50060 11.99786 1966 ft 66 kts 68°
2026-04-16 14:02 48.50257 12.00400 1854 ft 65 kts 57°
2026-04-16 14:03 48.50468 12.01004 1756 ft 66 kts 54°
2026-04-16 14:03 48.50666 12.01624 1628 ft 64 kts 65°
2026-04-16 14:03 48.50828 12.02223 1485 ft 61 kts 55°
2026-04-16 14:03 48.51001 12.02779 1333 ft 55 kts 60°
2026-04-16 14:04 48.51120 12.03208 1316 ft 34 kts 64°
2026-04-16 14:04 48.51203 12.03477 1319 ft 23 kts 66°
2026-04-16 14:04 48.51253 12.03594 1321 ft 8 kts 21°
2026-04-16 14:04 48.51308 12.03619 1320 ft 9 kts 27°
2026-04-16 14:05 48.51333 12.03691 1318 ft 1 kts 128°
2026-04-16 14:05 48.51340 12.03701 1318 ft 0 kts 339°